createdAt,value
2022-11-09T00:01:02.475Z,11.80
2022-11-09T00:03:31.706Z,11.80
2022-11-09T00:06:01.066Z,11.80
2022-11-09T00:08:29.482Z,11.80
2022-11-09T00:11:02.781Z,11.80
2022-11-09T00:13:30.622Z,11.70
2022-11-09T00:15:59.912Z,11.70
2022-11-09T00:18:27.692Z,11.70
2022-11-09T00:20:57.233Z,11.70
2022-11-09T00:23:25.000Z,11.70
2022-11-09T00:25:52.747Z,11.70
2022-11-09T00:28:20.480Z,11.70
2022-11-09T00:30:48.351Z,11.70
2022-11-09T00:33:17.627Z,11.60
2022-11-09T00:35:45.532Z,11.60
2022-11-09T00:38:14.615Z,11.60
2022-11-09T00:40:42.458Z,11.60
2022-11-09T00:43:10.598Z,11.60
2022-11-09T00:45:38.454Z,11.60
2022-11-09T00:48:06.294Z,11.70
2022-11-09T00:50:34.556Z,11.70
2022-11-09T00:53:02.390Z,11.70
2022-11-09T00:55:31.582Z,11.80
2022-11-09T00:57:59.821Z,11.80
2022-11-09T01:00:27.943Z,11.90
2022-11-09T01:02:55.687Z,11.90
2022-11-09T01:05:23.439Z,11.90
2022-11-09T01:07:51.306Z,12.00
2022-11-09T01:10:19.175Z,12.00
2022-11-09T01:12:49.025Z,12.00
2022-11-09T01:15:16.795Z,12.00
2022-11-09T01:17:44.578Z,12.00
2022-11-09T01:20:13.230Z,12.00
2022-11-09T01:22:41.077Z,12.00
2022-11-09T01:25:10.030Z,12.00
2022-11-09T01:27:37.772Z,12.00
2022-11-09T01:30:09.269Z,12.00
2022-11-09T01:32:37.017Z,11.90
2022-11-09T01:35:07.074Z,11.90
2022-11-09T01:37:34.836Z,11.80
2022-11-09T01:40:02.630Z,11.80
2022-11-09T01:42:37.082Z,11.70
2022-11-09T01:45:26.188Z,11.60
2022-11-09T01:47:59.704Z,11.60
2022-11-09T01:50:33.951Z,11.50
2022-11-09T01:53:06.966Z,11.40
2022-11-09T01:55:35.096Z,11.40
2022-11-09T01:58:06.651Z,11.40
2022-11-09T02:00:38.929Z,11.40
2022-11-09T02:03:10.546Z,11.40
2022-11-09T02:05:41.458Z,11.40
2022-11-09T02:08:12.328Z,11.40
2022-11-09T02:10:44.485Z,11.40
2022-11-09T02:13:16.589Z,11.40
2022-11-09T02:15:46.270Z,11.30
2022-11-09T02:18:14.960Z,11.30
2022-11-09T02:20:49.566Z,11.30
2022-11-09T02:23:18.168Z,11.20
2022-11-09T02:25:51.978Z,11.20
2022-11-09T02:28:20.414Z,11.10
2022-11-09T02:30:52.573Z,11.10
2022-11-09T02:33:20.934Z,11.00
2022-11-09T02:35:51.298Z,11.00
2022-11-09T02:38:19.126Z,11.00
2022-11-09T02:40:52.313Z,11.00
2022-11-09T02:43:21.336Z,11.00
2022-11-09T02:45:49.576Z,11.00
2022-11-09T02:48:17.953Z,11.00
2022-11-09T02:50:45.722Z,11.00
2022-11-09T02:53:14.795Z,11.00
2022-11-09T02:55:45.479Z,11.10
2022-11-09T02:58:14.229Z,11.10
2022-11-09T03:00:42.423Z,11.10
2022-11-09T03:03:10.383Z,11.00
2022-11-09T03:05:38.689Z,11.00
2022-11-09T03:08:06.852Z,11.00
2022-11-09T03:10:37.613Z,11.00
2022-11-09T03:13:05.389Z,10.90
2022-11-09T03:15:33.224Z,11.00
2022-11-09T03:18:01.131Z,11.00
2022-11-09T03:20:28.902Z,10.90
2022-11-09T03:22:59.009Z,10.90
2022-11-09T03:25:27.754Z,10.90
2022-11-09T03:27:59.996Z,10.90
2022-11-09T03:30:28.960Z,11.00
2022-11-09T03:33:02.487Z,11.00
2022-11-09T03:35:30.446Z,10.90
2022-11-09T03:37:58.773Z,11.00
2022-11-09T03:40:27.081Z,11.00
2022-11-09T03:42:54.947Z,11.00
2022-11-09T03:45:27.780Z,11.00
2022-11-09T03:47:59.857Z,11.00
2022-11-09T03:50:28.810Z,11.10
2022-11-09T03:52:56.872Z,11.10
2022-11-09T03:55:25.061Z,11.20
2022-11-09T03:57:53.123Z,11.20
2022-11-09T04:00:22.706Z,11.20
2022-11-09T04:02:52.229Z,11.30
2022-11-09T04:05:20.583Z,11.30
2022-11-09T04:07:50.419Z,11.40
2022-11-09T04:10:19.063Z,11.40
2022-11-09T04:12:47.034Z,11.40
2022-11-09T04:15:15.299Z,11.40
2022-11-09T04:17:44.595Z,11.40
2022-11-09T04:20:13.809Z,11.40
2022-11-09T04:22:41.549Z,11.40
2022-11-09T04:25:09.678Z,11.40
2022-11-09T04:27:37.431Z,11.40
2022-11-09T04:30:06.036Z,11.40
2022-11-09T04:32:33.827Z,11.40
2022-11-09T04:35:01.594Z,11.40
2022-11-09T04:37:30.691Z,11.40
2022-11-09T04:39:58.485Z,11.40
2022-11-09T04:42:26.195Z,11.40
2022-11-09T04:44:53.973Z,11.40
2022-11-09T04:47:21.708Z,11.40
2022-11-09T04:49:49.446Z,11.40
2022-11-09T04:52:17.224Z,11.40
2022-11-09T04:54:46.274Z,11.40
2022-11-09T04:57:14.029Z,11.40
2022-11-09T04:59:41.811Z,11.40
2022-11-09T05:02:09.527Z,11.40
2022-11-09T05:04:37.328Z,11.30
2022-11-09T05:07:05.190Z,11.40
2022-11-09T05:09:32.949Z,11.30
2022-11-09T05:12:02.021Z,11.30
2022-11-09T05:14:29.847Z,11.30
2022-11-09T05:16:57.582Z,11.30
2022-11-09T05:19:25.335Z,11.20
2022-11-09T05:21:53.098Z,11.20
2022-11-09T05:24:19.973Z,11.20
2022-11-09T05:26:47.746Z,11.20
2022-11-09T05:29:16.865Z,11.20
2022-11-09T05:31:51.802Z,11.20
2022-11-09T05:34:20.094Z,11.20
2022-11-09T05:36:47.845Z,11.20
2022-11-09T05:39:15.610Z,11.20
2022-11-09T05:41:43.347Z,11.30
2022-11-09T05:44:11.094Z,11.30
2022-11-09T05:46:40.203Z,11.30
2022-11-09T05:49:07.951Z,11.30
2022-11-09T05:51:35.744Z,11.30
2022-11-09T05:54:03.669Z,11.30
2022-11-09T05:56:31.441Z,11.30
2022-11-09T05:58:59.173Z,11.20
2022-11-09T06:01:26.927Z,11.20
2022-11-09T06:03:56.204Z,11.30
2022-11-09T06:06:26.906Z,11.40
2022-11-09T06:08:54.720Z,11.60
2022-11-09T06:11:24.404Z,11.70
2022-11-09T06:13:53.069Z,11.80
2022-11-09T06:16:20.980Z,11.80
2022-11-09T06:18:48.824Z,11.90
2022-11-09T06:21:18.102Z,11.80
2022-11-09T06:23:46.168Z,11.80
2022-11-09T06:26:14.404Z,11.70
2022-11-09T06:28:42.797Z,11.60
2022-11-09T06:31:13.440Z,11.60
2022-11-09T06:33:41.193Z,11.50
2022-11-09T06:36:10.437Z,11.50
2022-11-09T06:38:39.700Z,11.50
2022-11-09T06:41:07.696Z,11.50
2022-11-09T06:43:35.505Z,11.50
2022-11-09T06:46:04.749Z,11.50
2022-11-09T06:48:32.523Z,11.50
2022-11-09T06:51:04.699Z,11.50
2022-11-09T06:53:33.387Z,11.50
2022-11-09T06:56:03.953Z,11.50
2022-11-09T06:58:32.482Z,11.50
2022-11-09T07:01:00.965Z,11.50
2022-11-09T07:03:28.808Z,11.50
2022-11-09T07:05:56.528Z,11.50
2022-11-09T07:08:24.302Z,11.50
2022-11-09T07:10:52.032Z,11.60
2022-11-09T07:13:21.395Z,11.60
2022-11-09T07:15:54.085Z,11.70
2022-11-09T07:18:21.901Z,11.70
2022-11-09T07:20:49.660Z,11.70
2022-11-09T07:23:17.719Z,11.80
2022-11-09T07:25:45.771Z,11.80
2022-11-09T07:28:13.998Z,11.90
2022-11-09T07:30:43.048Z,12.00
2022-11-09T07:33:16.009Z,12.10
2022-11-09T07:35:43.791Z,12.10
2022-11-09T07:38:11.763Z,12.20
2022-11-09T07:40:39.532Z,12.20
2022-11-09T07:43:08.091Z,12.30
2022-11-09T07:45:38.868Z,12.30
2022-11-09T07:48:09.699Z,12.30
2022-11-09T07:50:39.230Z,12.30
2022-11-09T07:53:08.194Z,12.40
2022-11-09T07:55:36.825Z,12.40
2022-11-09T07:58:06.345Z,12.40
2022-11-09T08:00:36.620Z,12.40
2022-11-09T08:03:05.189Z,12.40
2022-11-09T08:05:34.925Z,12.40
2022-11-09T08:08:05.955Z,12.40
2022-11-09T08:10:35.017Z,12.40
2022-11-09T08:13:05.203Z,12.40
2022-11-09T08:15:34.700Z,12.40
2022-11-09T08:18:04.341Z,12.50
2022-11-09T08:20:34.397Z,12.50
2022-11-09T08:23:04.573Z,12.50
2022-11-09T08:25:34.072Z,12.50
2022-11-09T08:28:02.030Z,12.50
2022-11-09T08:30:30.026Z,12.50
2022-11-09T08:32:59.849Z,12.60
2022-11-09T08:35:28.520Z,12.60
2022-11-09T08:38:01.053Z,12.70
2022-11-09T08:40:28.921Z,12.80
2022-11-09T08:42:56.700Z,12.80
2022-11-09T08:45:24.524Z,12.90
2022-11-09T08:47:59.411Z,12.90
2022-11-09T08:50:28.440Z,12.90
2022-11-09T08:52:57.957Z,13.00
2022-11-09T08:55:26.106Z,13.00
2022-11-09T08:57:55.934Z,13.10
2022-11-09T09:00:24.249Z,13.20
2022-11-09T09:02:52.378Z,13.20
2022-11-09T09:05:20.241Z,13.30
2022-11-09T09:07:48.159Z,13.30
2022-11-09T09:10:17.466Z,13.30
2022-11-09T09:12:45.401Z,13.40
2022-11-09T09:15:13.296Z,13.40
2022-11-09T09:17:41.188Z,13.40
2022-11-09T09:20:09.303Z,13.40
2022-11-09T09:22:37.743Z,13.40
2022-11-09T09:25:06.447Z,13.40
2022-11-09T09:27:36.045Z,13.40
2022-11-09T09:30:05.421Z,13.40
2022-11-09T09:32:33.316Z,13.40
2022-11-09T09:35:01.165Z,13.40
2022-11-09T09:37:29.032Z,13.40
2022-11-09T09:39:56.822Z,13.40
2022-11-09T09:42:31.737Z,13.40
2022-11-09T09:45:05.201Z,13.40
2022-11-09T09:47:46.028Z,13.40
2022-11-09T09:50:18.750Z,13.40
2022-11-09T09:53:17.601Z,13.50
2022-11-09T09:55:43.526Z,13.60
2022-11-09T09:58:15.167Z,13.70
2022-11-09T10:00:45.030Z,13.90
2022-11-09T10:03:18.313Z,14.00
2022-11-09T10:05:57.893Z,14.10
2022-11-09T10:11:07.939Z,14.30
2022-11-09T10:14:11.329Z,14.40
2022-11-09T10:16:48.880Z,14.50
2022-11-09T10:19:38.520Z,14.50
2022-11-09T10:22:13.538Z,14.60
2022-11-09T10:25:18.638Z,14.70
2022-11-09T10:27:48.483Z,14.80
2022-11-09T10:30:19.266Z,14.80
2022-11-09T10:32:51.250Z,14.90
2022-11-09T10:35:21.548Z,14.90
2022-11-09T10:37:52.304Z,14.80
2022-11-09T10:40:24.814Z,14.90
2022-11-09T10:43:13.148Z,14.90
2022-11-09T10:46:04.885Z,14.90
2022-11-09T10:48:55.556Z,14.90
2022-11-09T10:51:43.611Z,14.90
2022-11-09T10:54:33.767Z,14.80
2022-11-09T10:57:23.522Z,15.50
2022-11-09T11:00:19.204Z,15.00
2022-11-09T11:03:15.963Z,14.90
2022-11-09T11:06:05.972Z,15.00
2022-11-09T11:08:53.765Z,15.20
2022-11-09T11:17:26.333Z,15.10
2022-11-09T11:20:28.454Z,15.20
2022-11-09T11:23:19.114Z,15.20
2022-11-09T11:26:33.134Z,15.10
2022-11-09T11:29:44.368Z,15.10
2022-11-09T11:32:30.837Z,15.20
2022-11-09T11:35:19.528Z,15.20
2022-11-09T11:38:17.907Z,15.10
2022-11-09T11:41:24.713Z,15.10
2022-11-09T11:44:22.818Z,15.10
2022-11-09T11:47:12.467Z,15.20
2022-11-09T11:50:18.708Z,15.20
2022-11-09T11:53:20.824Z,15.10
2022-11-09T11:56:23.996Z,15.10
2022-11-09T11:59:36.507Z,15.20
2022-11-09T12:02:48.403Z,15.20
2022-11-09T12:06:08.374Z,15.20
2022-11-09T12:09:16.953Z,15.20
2022-11-09T12:12:14.140Z,15.20
2022-11-09T12:15:27.968Z,15.20
2022-11-09T12:18:28.528Z,15.10
2022-11-09T12:21:18.055Z,15.00
2022-11-09T12:24:19.378Z,15.10
2022-11-09T12:27:32.835Z,15.20
2022-11-09T12:30:21.893Z,15.30
2022-11-09T12:33:13.536Z,15.30
2022-11-09T12:36:05.412Z,15.50
2022-11-09T12:38:59.697Z,15.50
2022-11-09T12:41:48.658Z,15.40
2022-11-09T12:44:40.890Z,15.20
2022-11-09T12:47:31.144Z,15.30
2022-11-09T12:50:20.559Z,15.10
2022-11-09T12:53:07.756Z,15.20
2022-11-09T12:55:59.126Z,15.20
2022-11-09T12:58:46.060Z,15.20
2022-11-09T13:01:54.862Z,15.00
2022-11-09T13:04:56.318Z,15.10
2022-11-09T13:07:50.409Z,14.90
2022-11-09T13:10:39.346Z,15.10
2022-11-09T13:13:26.806Z,15.10
2022-11-09T13:16:33.383Z,15.00
2022-11-09T13:19:52.332Z,15.00
2022-11-09T13:23:00.556Z,15.20
2022-11-09T13:25:52.777Z,15.10
2022-11-09T13:28:44.497Z,15.20
2022-11-09T13:32:02.771Z,15.10
2022-11-09T13:34:51.909Z,15.10
2022-11-09T13:37:49.119Z,15.10
2022-11-09T13:40:48.210Z,15.00
2022-11-09T13:43:38.314Z,15.00
2022-11-09T13:46:26.536Z,15.00
2022-11-09T13:49:51.642Z,15.20
2022-11-09T13:52:52.248Z,15.30
2022-11-09T13:55:40.323Z,15.20
2022-11-09T13:58:30.747Z,15.30
2022-11-09T14:01:26.876Z,15.10
2022-11-09T14:04:22.342Z,15.00
2022-11-09T14:07:19.578Z,14.90
2022-11-09T14:10:16.422Z,14.80
2022-11-09T14:13:28.495Z,14.70
2022-11-09T14:16:25.954Z,14.80
2022-11-09T14:19:23.757Z,14.80
2022-11-09T14:22:17.459Z,14.60
2022-11-09T14:25:13.589Z,14.60
2022-11-09T14:28:00.317Z,14.50
2022-11-09T14:30:46.749Z,14.50
2022-11-09T14:33:36.169Z,14.30
2022-11-09T14:36:22.488Z,14.40
2022-11-09T14:39:23.992Z,14.40
2022-11-09T14:42:18.410Z,14.40
2022-11-09T14:45:08.018Z,14.30
2022-11-09T14:47:57.394Z,14.20
2022-11-09T14:50:43.961Z,14.00
2022-11-09T14:53:31.763Z,14.10
2022-11-09T14:56:21.419Z,13.90
2022-11-09T14:59:10.577Z,13.90
2022-11-09T15:02:04.809Z,13.50
2022-11-09T15:04:55.861Z,13.80
2022-11-09T15:07:47.164Z,13.60
2022-11-09T15:10:34.585Z,13.60
2022-11-09T15:13:30.921Z,13.50
2022-11-09T15:16:22.847Z,13.30
2022-11-09T15:19:22.860Z,13.10
2022-11-09T15:22:54.336Z,13.30
2022-11-09T15:25:55.499Z,13.40
2022-11-09T15:28:47.666Z,13.00
2022-11-09T15:31:34.040Z,13.10
2022-11-09T15:34:23.811Z,13.20
2022-11-09T15:37:25.714Z,13.00
2022-11-09T15:40:14.135Z,12.90
2022-11-09T15:43:00.529Z,12.80
2022-11-09T15:45:48.414Z,12.70
2022-11-09T15:48:35.356Z,12.50
2022-11-09T15:51:21.777Z,12.40
2022-11-09T15:54:07.920Z,12.40
2022-11-09T15:56:54.508Z,12.30
2022-11-09T15:59:41.007Z,12.20
2022-11-09T16:02:28.873Z,12.20
2022-11-09T16:05:16.385Z,12.10
2022-11-09T16:08:02.956Z,12.00
2022-11-09T16:10:49.024Z,12.00
2022-11-09T16:13:35.621Z,11.90
2022-11-09T16:16:21.739Z,11.80
2022-11-09T16:19:14.709Z,11.80
2022-11-09T16:22:02.795Z,11.80
2022-11-09T16:24:49.397Z,11.80
2022-11-09T16:27:49.783Z,11.80
2022-11-09T16:30:38.290Z,11.70
2022-11-09T16:33:27.754Z,11.70
2022-11-09T16:36:18.690Z,11.60
2022-11-09T16:39:09.257Z,11.60
2022-11-09T16:41:56.518Z,11.50
2022-11-09T16:44:44.517Z,11.60
2022-11-09T16:47:31.294Z,11.50
2022-11-09T16:50:18.208Z,11.50
2022-11-09T16:53:05.658Z,11.60
2022-11-09T16:55:52.131Z,11.60
2022-11-09T16:58:38.657Z,11.60
2022-11-09T17:01:25.200Z,11.60
2022-11-09T17:04:11.767Z,11.60
2022-11-09T17:06:58.468Z,11.70
2022-11-09T17:09:46.284Z,11.70
2022-11-09T17:12:32.877Z,11.70
2022-11-09T17:15:20.073Z,11.80
2022-11-09T17:18:09.275Z,11.80
2022-11-09T17:20:55.525Z,11.80
2022-11-09T17:23:42.835Z,11.80
2022-11-09T17:26:32.899Z,11.90
2022-11-09T17:29:19.141Z,11.90
2022-11-09T17:32:06.306Z,12.00
2022-11-09T17:34:53.062Z,12.00
2022-11-09T17:37:39.405Z,12.00
2022-11-09T17:40:25.710Z,12.10
2022-11-09T17:43:13.715Z,12.10
2022-11-09T17:46:04.478Z,12.10
2022-11-09T17:48:51.244Z,12.10
2022-11-09T17:51:37.550Z,12.10
2022-11-09T17:54:24.366Z,12.20
2022-11-09T17:57:10.590Z,12.30
2022-11-09T17:59:59.449Z,12.30
2022-11-09T18:02:45.680Z,12.40
2022-11-09T18:05:31.887Z,12.30
2022-11-09T18:08:18.534Z,12.30
2022-11-09T18:11:05.677Z,12.30
2022-11-09T18:13:52.125Z,12.30
2022-11-09T18:16:40.129Z,12.30
2022-11-09T18:19:26.860Z,12.20
2022-11-09T18:22:13.566Z,12.20
2022-11-09T18:25:00.016Z,12.20
2022-11-09T18:27:47.198Z,12.30
2022-11-09T18:30:33.549Z,12.30
2022-11-09T18:33:21.097Z,12.30
2022-11-09T18:36:11.282Z,12.20
2022-11-09T18:38:57.537Z,12.20
2022-11-09T18:41:43.848Z,12.10
2022-11-09T18:44:30.205Z,12.10
2022-11-09T18:47:16.806Z,12.20
2022-11-09T18:50:05.561Z,12.20
2022-11-09T18:52:51.863Z,12.20
2022-11-09T18:55:38.341Z,12.20
2022-11-09T18:58:24.980Z,12.20
2022-11-09T19:01:11.563Z,12.30
2022-11-09T19:04:00.388Z,12.30
2022-11-09T19:06:48.313Z,12.30
2022-11-09T19:09:37.082Z,12.30
2022-11-09T19:12:24.138Z,12.30
2022-11-09T19:15:11.039Z,12.30
2022-11-09T19:17:57.341Z,12.30
2022-11-09T19:20:43.893Z,12.30
2022-11-09T19:23:34.748Z,12.30
2022-11-09T19:26:22.131Z,12.30
2022-11-09T19:29:09.770Z,12.20
2022-11-09T19:31:55.995Z,12.20
2022-11-09T19:34:42.796Z,12.20
2022-11-09T19:37:29.454Z,12.10
2022-11-09T19:40:17.717Z,12.10
2022-11-09T19:43:04.164Z,12.10
2022-11-09T19:45:50.750Z,12.10
2022-11-09T19:48:37.256Z,12.10
2022-11-09T19:51:24.625Z,12.10
2022-11-09T19:54:12.509Z,12.10
2022-11-09T19:57:00.344Z,12.10
2022-11-09T19:59:46.803Z,12.10
2022-11-09T20:02:33.244Z,12.10
2022-11-09T20:05:19.536Z,12.10
2022-11-09T20:08:06.011Z,12.10
2022-11-09T20:10:54.041Z,12.10
2022-11-09T20:13:42.033Z,12.10
2022-11-09T20:16:28.746Z,12.20
2022-11-09T20:19:15.476Z,12.20
2022-11-09T20:22:01.712Z,12.20
2022-11-09T20:24:48.189Z,12.20
2022-11-09T20:27:34.405Z,12.20
2022-11-09T20:30:22.423Z,12.20
2022-11-09T20:33:09.647Z,12.20
2022-11-09T20:35:56.491Z,12.10
2022-11-09T20:38:43.347Z,12.10
2022-11-09T20:41:30.066Z,12.10
2022-11-09T20:44:16.854Z,12.10
2022-11-09T20:47:05.180Z,12.10
2022-11-09T20:49:51.279Z,12.10
2022-11-09T20:52:38.256Z,12.10
2022-11-09T20:55:25.207Z,12.00
2022-11-09T20:58:13.075Z,12.00
2022-11-09T21:01:04.683Z,11.90
2022-11-09T21:03:52.930Z,11.90
2022-11-09T21:06:39.087Z,11.90
2022-11-09T21:09:25.389Z,11.80
2022-11-09T21:12:24.738Z,11.80
2022-11-09T21:15:14.001Z,11.80
2022-11-09T21:18:00.275Z,11.70
2022-11-09T21:20:48.181Z,11.70
2022-11-09T21:23:52.304Z,11.70
2022-11-09T21:26:56.318Z,11.60
2022-11-09T21:29:51.486Z,11.60
2022-11-09T21:32:38.470Z,11.60
2022-11-09T21:35:24.740Z,11.70
2022-11-09T21:38:12.615Z,11.50
2022-11-09T21:41:04.187Z,11.60
2022-11-09T21:43:54.186Z,11.50
2022-11-09T21:46:41.961Z,11.50
2022-11-09T21:49:28.779Z,11.50
2022-11-09T21:52:15.295Z,11.50
2022-11-09T21:55:03.174Z,11.40
2022-11-09T21:57:49.993Z,11.50
2022-11-09T22:00:36.451Z,11.40
2022-11-09T22:03:23.093Z,11.40
2022-11-09T22:06:10.355Z,11.40
2022-11-09T22:08:56.445Z,11.40
2022-11-09T22:12:02.208Z,11.40
2022-11-09T22:15:06.129Z,11.40
2022-11-09T22:17:54.449Z,11.30
2022-11-09T22:20:54.784Z,11.30
2022-11-09T22:23:40.946Z,11.20
2022-11-09T22:26:28.542Z,11.20
2022-11-09T22:29:16.242Z,11.20
2022-11-09T22:32:02.814Z,11.20
2022-11-09T22:34:49.084Z,11.20
2022-11-09T22:37:35.437Z,11.30
2022-11-09T22:40:22.695Z,11.30
2022-11-09T22:43:08.828Z,11.30
2022-11-09T22:45:56.477Z,11.40
2022-11-09T22:48:44.347Z,11.30
2022-11-09T22:51:30.780Z,11.30
2022-11-09T22:54:17.103Z,11.30
2022-11-09T22:57:03.844Z,11.30
2022-11-09T22:59:50.044Z,11.20
2022-11-09T23:02:37.864Z,11.10
2022-11-09T23:05:24.029Z,11.10
2022-11-09T23:08:10.942Z,11.00
2022-11-09T23:10:57.492Z,11.00
2022-11-09T23:13:44.256Z,11.00
2022-11-09T23:16:30.736Z,11.00
2022-11-09T23:19:17.590Z,11.00
2022-11-09T23:22:04.094Z,10.90
2022-11-09T23:25:08.130Z,10.90
2022-11-09T23:27:55.123Z,10.90
2022-11-09T23:30:41.701Z,10.90
2022-11-09T23:33:28.203Z,10.80
2022-11-09T23:36:16.198Z,10.80
2022-11-09T23:39:02.568Z,10.80
2022-11-09T23:41:49.124Z,10.80
2022-11-09T23:44:35.676Z,10.80
2022-11-09T23:47:22.248Z,10.80
2022-11-09T23:50:09.188Z,10.80
2022-11-09T23:52:58.733Z,10.80
2022-11-09T23:55:45.337Z,10.80
2022-11-09T23:58:31.662Z,10.80
